sensor_id;sensor_type;location;lat;lon;timestamp;temperature;humidity
19522;DHT22;9905;52.126;5.596;2022-11-14T00:01:19;6.10;99.90
19522;DHT22;9905;52.126;5.596;2022-11-14T00:03:49;6.10;99.90
19522;DHT22;9905;52.126;5.596;2022-11-14T00:06:16;6.00;99.90
19522;DHT22;9905;52.126;5.596;2022-11-14T00:08:43;6.00;99.90
19522;DHT22;9905;52.126;5.596;2022-11-14T00:11:09;6.00;99.90
19522;DHT22;9905;52.126;5.596;2022-11-14T00:13:36;6.00;99.90
19522;DHT22;9905;52.126;5.596;2022-11-14T00:16:03;5.90;99.90
19522;DHT22;9905;52.126;5.596;2022-11-14T00:18:30;5.90;99.90
19522;DHT22;9905;52.126;5.596;2022-11-14T00:20:58;5.90;99.90
19522;DHT22;9905;52.126;5.596;2022-11-14T00:23:24;5.90;99.90
19522;DHT22;9905;52.126;5.596;2022-11-14T00:25:51;5.90;99.90
19522;DHT22;9905;52.126;5.596;2022-11-14T00:28:18;5.90;99.90
19522;DHT22;9905;52.126;5.596;2022-11-14T00:30:48;5.90;99.90
19522;DHT22;9905;52.126;5.596;2022-11-14T00:33:14;5.90;99.90
19522;DHT22;9905;52.126;5.596;2022-11-14T00:35:49;5.90;99.90
19522;DHT22;9905;52.126;5.596;2022-11-14T00:38:17;5.90;99.90
19522;DHT22;9905;52.126;5.596;2022-11-14T00:40:44;5.90;99.90
19522;DHT22;9905;52.126;5.596;2022-11-14T00:43:11;5.80;99.90
19522;DHT22;9905;52.126;5.596;2022-11-14T00:45:37;5.80;99.90
19522;DHT22;9905;52.126;5.596;2022-11-14T00:48:04;5.80;99.90
19522;DHT22;9905;52.126;5.596;2022-11-14T00:50:31;5.80;99.90
19522;DHT22;9905;52.126;5.596;2022-11-14T00:52:58;5.80;99.90
19522;DHT22;9905;52.126;5.596;2022-11-14T00:55:26;5.80;99.90
19522;DHT22;9905;52.126;5.596;2022-11-14T00:57:52;5.70;99.90
19522;DHT22;9905;52.126;5.596;2022-11-14T01:00:19;5.70;99.90
19522;DHT22;9905;52.126;5.596;2022-11-14T01:02:46;5.70;99.90
19522;DHT22;9905;52.126;5.596;2022-11-14T01:05:13;5.70;99.90
19522;DHT22;9905;52.126;5.596;2022-11-14T01:07:39;5.70;99.90
19522;DHT22;9905;52.126;5.596;2022-11-14T01:10:07;5.70;99.90
19522;DHT22;9905;52.126;5.596;2022-11-14T01:12:36;5.70;99.90
19522;DHT22;9905;52.126;5.596;2022-11-14T01:15:03;5.80;99.90
19522;DHT22;9905;52.126;5.596;2022-11-14T01:17:29;5.70;99.90
19522;DHT22;9905;52.126;5.596;2022-11-14T01:19:57;5.70;99.90
19522;DHT22;9905;52.126;5.596;2022-11-14T01:22:24;5.60;99.90
19522;DHT22;9905;52.126;5.596;2022-11-14T01:24:50;5.60;99.90
19522;DHT22;9905;52.126;5.596;2022-11-14T01:27:17;5.60;99.90
19522;DHT22;9905;52.126;5.596;2022-11-14T01:29:45;5.60;99.90
19522;DHT22;9905;52.126;5.596;2022-11-14T01:32:12;5.60;99.90
19522;DHT22;9905;52.126;5.596;2022-11-14T01:34:38;5.60;99.90
19522;DHT22;9905;52.126;5.596;2022-11-14T01:37:05;5.50;99.90
19522;DHT22;9905;52.126;5.596;2022-11-14T01:39:32;5.60;99.90
19522;DHT22;9905;52.126;5.596;2022-11-14T01:41:59;5.50;99.90
19522;DHT22;9905;52.126;5.596;2022-11-14T01:44:47;5.50;99.90
19522;DHT22;9905;52.126;5.596;2022-11-14T01:47:18;5.50;99.90
19522;DHT22;9905;52.126;5.596;2022-11-14T01:49:48;5.50;99.90
19522;DHT22;9905;52.126;5.596;2022-11-14T01:52:17;5.40;99.90
19522;DHT22;9905;52.126;5.596;2022-11-14T01:54:47;5.40;99.90
19522;DHT22;9905;52.126;5.596;2022-11-14T01:57:17;5.40;99.90
19522;DHT22;9905;52.126;5.596;2022-11-14T01:59:52;5.40;99.90
19522;DHT22;9905;52.126;5.596;2022-11-14T02:02:21;5.40;99.90
19522;DHT22;9905;52.126;5.596;2022-11-14T02:04:52;5.40;99.90
19522;DHT22;9905;52.126;5.596;2022-11-14T02:07:22;5.30;99.90
19522;DHT22;9905;52.126;5.596;2022-11-14T02:09:50;5.30;99.90
19522;DHT22;9905;52.126;5.596;2022-11-14T02:12:18;5.30;99.90
19522;DHT22;9905;52.126;5.596;2022-11-14T02:14:48;5.30;99.90
19522;DHT22;9905;52.126;5.596;2022-11-14T02:17:17;5.30;99.90
19522;DHT22;9905;52.126;5.596;2022-11-14T02:19:47;5.20;99.90
19522;DHT22;9905;52.126;5.596;2022-11-14T02:22:15;5.20;99.90
19522;DHT22;9905;52.126;5.596;2022-11-14T02:24:42;5.20;99.90
19522;DHT22;9905;52.126;5.596;2022-11-14T02:27:10;5.20;99.90
19522;DHT22;9905;52.126;5.596;2022-11-14T02:29:37;5.20;99.90
19522;DHT22;9905;52.126;5.596;2022-11-14T02:32:05;5.10;99.90
19522;DHT22;9905;52.126;5.596;2022-11-14T02:34:32;5.10;99.90
19522;DHT22;9905;52.126;5.596;2022-11-14T02:36:59;5.10;99.90
19522;DHT22;9905;52.126;5.596;2022-11-14T02:39:27;5.10;99.90
19522;DHT22;9905;52.126;5.596;2022-11-14T02:41:53;5.00;99.90
19522;DHT22;9905;52.126;5.596;2022-11-14T02:44:20;5.10;99.90
19522;DHT22;9905;52.126;5.596;2022-11-14T02:46:47;5.00;99.90
19522;DHT22;9905;52.126;5.596;2022-11-14T02:49:13;5.00;99.90
19522;DHT22;9905;52.126;5.596;2022-11-14T02:51:40;4.90;99.90
19522;DHT22;9905;52.126;5.596;2022-11-14T02:54:07;4.90;99.90
19522;DHT22;9905;52.126;5.596;2022-11-14T02:56:35;4.90;99.90
19522;DHT22;9905;52.126;5.596;2022-11-14T02:59:02;4.90;99.90
19522;DHT22;9905;52.126;5.596;2022-11-14T03:01:29;4.90;99.90
19522;DHT22;9905;52.126;5.596;2022-11-14T03:03:56;4.90;99.90
19522;DHT22;9905;52.126;5.596;2022-11-14T03:06:22;4.90;99.90
19522;DHT22;9905;52.126;5.596;2022-11-14T03:08:49;4.80;99.90
19522;DHT22;9905;52.126;5.596;2022-11-14T03:11:16;4.80;99.90
19522;DHT22;9905;52.126;5.596;2022-11-14T03:13:44;4.90;99.90
19522;DHT22;9905;52.126;5.596;2022-11-14T03:16:12;4.80;99.90
19522;DHT22;9905;52.126;5.596;2022-11-14T03:18:39;4.80;99.90
19522;DHT22;9905;52.126;5.596;2022-11-14T03:21:07;4.80;99.90
19522;DHT22;9905;52.126;5.596;2022-11-14T03:23:34;4.70;99.90
19522;DHT22;9905;52.126;5.596;2022-11-14T03:26:01;4.70;99.90
19522;DHT22;9905;52.126;5.596;2022-11-14T03:28:28;4.70;99.90
19522;DHT22;9905;52.126;5.596;2022-11-14T03:30:56;4.70;99.90
19522;DHT22;9905;52.126;5.596;2022-11-14T03:33:23;4.70;99.90
19522;DHT22;9905;52.126;5.596;2022-11-14T03:35:51;4.60;99.90
19522;DHT22;9905;52.126;5.596;2022-11-14T03:38:18;4.60;99.90
19522;DHT22;9905;52.126;5.596;2022-11-14T03:40:47;4.60;99.90
19522;DHT22;9905;52.126;5.596;2022-11-14T03:43:14;4.70;99.90
19522;DHT22;9905;52.126;5.596;2022-11-14T03:45:41;4.60;99.90
19522;DHT22;9905;52.126;5.596;2022-11-14T03:48:09;4.60;99.90
19522;DHT22;9905;52.126;5.596;2022-11-14T03:50:36;4.60;99.90
19522;DHT22;9905;52.126;5.596;2022-11-14T03:53:03;4.60;99.90
19522;DHT22;9905;52.126;5.596;2022-11-14T03:55:29;4.50;99.90
19522;DHT22;9905;52.126;5.596;2022-11-14T03:57:56;4.60;99.90
19522;DHT22;9905;52.126;5.596;2022-11-14T04:00:23;4.60;99.90
19522;DHT22;9905;52.126;5.596;2022-11-14T04:02:52;4.60;99.90
19522;DHT22;9905;52.126;5.596;2022-11-14T04:05:21;4.50;99.90
19522;DHT22;9905;52.126;5.596;2022-11-14T04:07:48;4.50;99.90
19522;DHT22;9905;52.126;5.596;2022-11-14T04:10:15;4.50;99.90
19522;DHT22;9905;52.126;5.596;2022-11-14T04:12:46;4.60;99.90
19522;DHT22;9905;52.126;5.596;2022-11-14T04:15:13;4.60;99.90
19522;DHT22;9905;52.126;5.596;2022-11-14T04:17:39;4.50;99.90
19522;DHT22;9905;52.126;5.596;2022-11-14T04:20:07;4.60;99.90
19522;DHT22;9905;52.126;5.596;2022-11-14T04:22:35;4.60;99.90
19522;DHT22;9905;52.126;5.596;2022-11-14T04:25:01;4.50;99.90
19522;DHT22;9905;52.126;5.596;2022-11-14T04:27:28;4.50;99.90
19522;DHT22;9905;52.126;5.596;2022-11-14T04:29:55;4.50;99.90
19522;DHT22;9905;52.126;5.596;2022-11-14T04:32:21;4.40;99.90
19522;DHT22;9905;52.126;5.596;2022-11-14T04:34:48;4.40;99.90
19522;DHT22;9905;52.126;5.596;2022-11-14T04:37:15;4.40;99.90
19522;DHT22;9905;52.126;5.596;2022-11-14T04:39:43;4.50;99.90
19522;DHT22;9905;52.126;5.596;2022-11-14T04:42:09;4.40;99.90
19522;DHT22;9905;52.126;5.596;2022-11-14T04:44:36;4.40;99.90
19522;DHT22;9905;52.126;5.596;2022-11-14T04:47:03;4.40;99.90
19522;DHT22;9905;52.126;5.596;2022-11-14T04:49:30;4.30;99.90
19522;DHT22;9905;52.126;5.596;2022-11-14T04:51:56;4.40;99.90
19522;DHT22;9905;52.126;5.596;2022-11-14T04:54:23;4.40;99.90
19522;DHT22;9905;52.126;5.596;2022-11-14T04:56:51;4.40;99.90
19522;DHT22;9905;52.126;5.596;2022-11-14T04:59:18;4.40;99.90
19522;DHT22;9905;52.126;5.596;2022-11-14T05:01:44;4.30;99.90
19522;DHT22;9905;52.126;5.596;2022-11-14T05:04:11;4.30;99.90
19522;DHT22;9905;52.126;5.596;2022-11-14T05:06:38;4.40;99.90
19522;DHT22;9905;52.126;5.596;2022-11-14T05:09:05;4.30;99.90
19522;DHT22;9905;52.126;5.596;2022-11-14T05:11:31;4.30;99.90
19522;DHT22;9905;52.126;5.596;2022-11-14T05:13:59;4.30;99.90
19522;DHT22;9905;52.126;5.596;2022-11-14T05:16:26;4.30;99.90
19522;DHT22;9905;52.126;5.596;2022-11-14T05:18:53;4.30;99.90
19522;DHT22;9905;52.126;5.596;2022-11-14T05:21:20;4.30;99.90
19522;DHT22;9905;52.126;5.596;2022-11-14T05:23:47;4.30;99.90
19522;DHT22;9905;52.126;5.596;2022-11-14T05:26:15;4.20;99.90
19522;DHT22;9905;52.126;5.596;2022-11-14T05:28:42;4.20;99.90
19522;DHT22;9905;52.126;5.596;2022-11-14T05:31:11;4.20;99.90
19522;DHT22;9905;52.126;5.596;2022-11-14T05:33:39;4.20;99.90
19522;DHT22;9905;52.126;5.596;2022-11-14T05:36:07;4.10;99.90
19522;DHT22;9905;52.126;5.596;2022-11-14T05:38:35;4.10;99.90
19522;DHT22;9905;52.126;5.596;2022-11-14T05:41:04;4.10;99.90
19522;DHT22;9905;52.126;5.596;2022-11-14T05:43:31;4.00;99.90
19522;DHT22;9905;52.126;5.596;2022-11-14T05:45:58;4.00;99.90
19522;DHT22;9905;52.126;5.596;2022-11-14T05:48:27;4.10;99.90
19522;DHT22;9905;52.126;5.596;2022-11-14T05:50:54;4.10;99.90
19522;DHT22;9905;52.126;5.596;2022-11-14T05:53:21;4.00;99.90
19522;DHT22;9905;52.126;5.596;2022-11-14T05:55:48;4.00;99.90
19522;DHT22;9905;52.126;5.596;2022-11-14T05:58:15;4.00;99.90
19522;DHT22;9905;52.126;5.596;2022-11-14T06:00:42;4.00;99.90
19522;DHT22;9905;52.126;5.596;2022-11-14T06:03:09;4.00;99.90
19522;DHT22;9905;52.126;5.596;2022-11-14T06:05:37;4.00;99.90
19522;DHT22;9905;52.126;5.596;2022-11-14T06:08:04;3.90;99.90
19522;DHT22;9905;52.126;5.596;2022-11-14T06:10:30;3.90;99.90
19522;DHT22;9905;52.126;5.596;2022-11-14T06:12:57;3.80;99.90
19522;DHT22;9905;52.126;5.596;2022-11-14T06:15:24;3.80;99.90
19522;DHT22;9905;52.126;5.596;2022-11-14T06:17:51;3.70;99.90
19522;DHT22;9905;52.126;5.596;2022-11-14T06:20:18;3.70;99.90
19522;DHT22;9905;52.126;5.596;2022-11-14T06:22:46;3.70;99.90
19522;DHT22;9905;52.126;5.596;2022-11-14T06:25:13;3.70;99.90
19522;DHT22;9905;52.126;5.596;2022-11-14T06:27:40;3.70;99.90
19522;DHT22;9905;52.126;5.596;2022-11-14T06:30:07;3.70;99.90
19522;DHT22;9905;52.126;5.596;2022-11-14T06:32:34;3.60;99.90
19522;DHT22;9905;52.126;5.596;2022-11-14T06:35:01;3.60;99.90
19522;DHT22;9905;52.126;5.596;2022-11-14T06:37:28;3.60;99.90
19522;DHT22;9905;52.126;5.596;2022-11-14T06:39:56;3.60;99.90
19522;DHT22;9905;52.126;5.596;2022-11-14T06:42:23;3.60;99.90
19522;DHT22;9905;52.126;5.596;2022-11-14T06:44:49;3.60;99.90
19522;DHT22;9905;52.126;5.596;2022-11-14T06:47:16;3.60;99.90
19522;DHT22;9905;52.126;5.596;2022-11-14T06:49:43;3.60;99.90
19522;DHT22;9905;52.126;5.596;2022-11-14T06:52:09;3.60;99.90
19522;DHT22;9905;52.126;5.596;2022-11-14T06:54:36;3.60;99.90
19522;DHT22;9905;52.126;5.596;2022-11-14T06:57:04;3.50;99.90
19522;DHT22;9905;52.126;5.596;2022-11-14T06:59:31;3.50;99.90
19522;DHT22;9905;52.126;5.596;2022-11-14T07:01:58;3.50;99.90
19522;DHT22;9905;52.126;5.596;2022-11-14T07:04:24;3.50;99.90
19522;DHT22;9905;52.126;5.596;2022-11-14T07:06:51;3.50;99.90
19522;DHT22;9905;52.126;5.596;2022-11-14T07:09:18;3.50;99.90
19522;DHT22;9905;52.126;5.596;2022-11-14T07:11:44;3.50;99.90
19522;DHT22;9905;52.126;5.596;2022-11-14T07:14:13;3.50;99.90
19522;DHT22;9905;52.126;5.596;2022-11-14T07:16:40;3.50;99.90
19522;DHT22;9905;52.126;5.596;2022-11-14T07:19:07;3.50;99.90
19522;DHT22;9905;52.126;5.596;2022-11-14T07:21:35;3.60;99.90
19522;DHT22;9905;52.126;5.596;2022-11-14T07:24:02;3.60;99.90
19522;DHT22;9905;52.126;5.596;2022-11-14T07:26:29;3.60;99.90
19522;DHT22;9905;52.126;5.596;2022-11-14T07:28:55;3.60;99.90
19522;DHT22;9905;52.126;5.596;2022-11-14T07:31:23;3.60;99.90
19522;DHT22;9905;52.126;5.596;2022-11-14T07:33:50;3.60;99.90
19522;DHT22;9905;52.126;5.596;2022-11-14T07:36:17;3.60;99.90
19522;DHT22;9905;52.126;5.596;2022-11-14T07:38:44;3.60;99.90
19522;DHT22;9905;52.126;5.596;2022-11-14T07:41:12;3.60;99.90
19522;DHT22;9905;52.126;5.596;2022-11-14T07:43:39;3.60;99.90
19522;DHT22;9905;52.126;5.596;2022-11-14T07:46:09;3.60;99.90
19522;DHT22;9905;52.126;5.596;2022-11-14T07:48:37;3.60;99.90
19522;DHT22;9905;52.126;5.596;2022-11-14T07:51:06;3.70;99.90
19522;DHT22;9905;52.126;5.596;2022-11-14T07:53:33;3.70;99.90
19522;DHT22;9905;52.126;5.596;2022-11-14T07:56:02;3.70;99.90
19522;DHT22;9905;52.126;5.596;2022-11-14T07:58:29;3.70;99.90
19522;DHT22;9905;52.126;5.596;2022-11-14T08:00:59;3.70;99.90
19522;DHT22;9905;52.126;5.596;2022-11-14T08:03:26;3.70;99.90
19522;DHT22;9905;52.126;5.596;2022-11-14T08:06:00;3.80;99.90
19522;DHT22;9905;52.126;5.596;2022-11-14T08:08:27;3.70;99.90
19522;DHT22;9905;52.126;5.596;2022-11-14T08:10:55;3.80;99.90
19522;DHT22;9905;52.126;5.596;2022-11-14T08:13:23;3.80;99.90
19522;DHT22;9905;52.126;5.596;2022-11-14T08:15:50;3.90;99.90
19522;DHT22;9905;52.126;5.596;2022-11-14T08:18:17;3.90;99.90
19522;DHT22;9905;52.126;5.596;2022-11-14T08:20:43;3.90;99.90
19522;DHT22;9905;52.126;5.596;2022-11-14T08:23:12;4.00;99.90
19522;DHT22;9905;52.126;5.596;2022-11-14T08:25:39;4.00;99.90
19522;DHT22;9905;52.126;5.596;2022-11-14T08:28:06;4.00;99.90
19522;DHT22;9905;52.126;5.596;2022-11-14T08:30:33;4.10;99.90
19522;DHT22;9905;52.126;5.596;2022-11-14T08:33:01;4.30;99.90
19522;DHT22;9905;52.126;5.596;2022-11-14T08:35:28;4.40;99.90
19522;DHT22;9905;52.126;5.596;2022-11-14T08:37:55;4.50;99.90
19522;DHT22;9905;52.126;5.596;2022-11-14T08:40:24;4.60;99.90
19522;DHT22;9905;52.126;5.596;2022-11-14T08:42:51;4.80;99.90
19522;DHT22;9905;52.126;5.596;2022-11-14T08:45:17;4.90;99.90
19522;DHT22;9905;52.126;5.596;2022-11-14T08:47:49;4.90;99.90
19522;DHT22;9905;52.126;5.596;2022-11-14T08:50:16;4.90;99.90
19522;DHT22;9905;52.126;5.596;2022-11-14T08:52:48;4.90;99.90
19522;DHT22;9905;52.126;5.596;2022-11-14T08:55:15;4.90;99.90
19522;DHT22;9905;52.126;5.596;2022-11-14T08:57:43;5.00;99.90
19522;DHT22;9905;52.126;5.596;2022-11-14T09:00:11;5.00;99.90
19522;DHT22;9905;52.126;5.596;2022-11-14T09:02:37;5.00;99.90
19522;DHT22;9905;52.126;5.596;2022-11-14T09:05:06;5.10;99.90
19522;DHT22;9905;52.126;5.596;2022-11-14T09:07:33;5.20;99.90
19522;DHT22;9905;52.126;5.596;2022-11-14T09:09:59;5.30;99.90
19522;DHT22;9905;52.126;5.596;2022-11-14T09:12:26;5.40;99.90
19522;DHT22;9905;52.126;5.596;2022-11-14T09:14:54;5.60;99.90
19522;DHT22;9905;52.126;5.596;2022-11-14T09:17:21;5.70;99.90
19522;DHT22;9905;52.126;5.596;2022-11-14T09:19:47;5.90;99.90
19522;DHT22;9905;52.126;5.596;2022-11-14T09:22:14;6.00;99.90
19522;DHT22;9905;52.126;5.596;2022-11-14T09:24:41;6.10;99.90
19522;DHT22;9905;52.126;5.596;2022-11-14T09:27:08;6.10;99.90
19522;DHT22;9905;52.126;5.596;2022-11-14T09:29:34;6.20;99.90
19522;DHT22;9905;52.126;5.596;2022-11-14T09:32:03;6.20;99.90
19522;DHT22;9905;52.126;5.596;2022-11-14T09:34:29;6.30;99.90
19522;DHT22;9905;52.126;5.596;2022-11-14T09:36:56;6.40;99.90
19522;DHT22;9905;52.126;5.596;2022-11-14T09:39:23;6.40;99.90
19522;DHT22;9905;52.126;5.596;2022-11-14T09:42:01;6.50;99.90
19522;DHT22;9905;52.126;5.596;2022-11-14T09:44:42;6.60;99.90
19522;DHT22;9905;52.126;5.596;2022-11-14T09:47:16;6.70;99.90
19522;DHT22;9905;52.126;5.596;2022-11-14T09:49:46;6.80;99.90
19522;DHT22;9905;52.126;5.596;2022-11-14T09:52:24;7.00;99.90
19522;DHT22;9905;52.126;5.596;2022-11-14T09:54:55;7.00;99.90
19522;DHT22;9905;52.126;5.596;2022-11-14T09:57:22;7.20;99.90
19522;DHT22;9905;52.126;5.596;2022-11-14T09:59:50;7.30;99.90
19522;DHT22;9905;52.126;5.596;2022-11-14T10:02:32;7.40;99.90
19522;DHT22;9905;52.126;5.596;2022-11-14T10:05:21;7.50;99.90
19522;DHT22;9905;52.126;5.596;2022-11-14T10:08:06;7.60;99.90
19522;DHT22;9905;52.126;5.596;2022-11-14T10:10:49;7.80;99.90
19522;DHT22;9905;52.126;5.596;2022-11-14T10:16:14;8.00;99.90
19522;DHT22;9905;52.126;5.596;2022-11-14T10:18:57;8.10;99.90
19522;DHT22;9905;52.126;5.596;2022-11-14T10:21:38;8.20;99.90
19522;DHT22;9905;52.126;5.596;2022-11-14T10:24:18;8.30;99.90
19522;DHT22;9905;52.126;5.596;2022-11-14T10:26:54;8.30;99.90
19522;DHT22;9905;52.126;5.596;2022-11-14T10:32:35;8.40;99.90
19522;DHT22;9905;52.126;5.596;2022-11-14T10:35:11;8.50;99.90
19522;DHT22;9905;52.126;5.596;2022-11-14T10:37:45;8.60;99.90
19522;DHT22;9905;52.126;5.596;2022-11-14T10:40:18;8.60;99.90
19522;DHT22;9905;52.126;5.596;2022-11-14T10:42:49;8.70;99.90
19522;DHT22;9905;52.126;5.596;2022-11-14T10:45:22;8.80;99.90
19522;DHT22;9905;52.126;5.596;2022-11-14T10:47:52;8.90;99.90
19522;DHT22;9905;52.126;5.596;2022-11-14T10:50:24;8.90;99.90
19522;DHT22;9905;52.126;5.596;2022-11-14T10:52:56;9.00;99.90
19522;DHT22;9905;52.126;5.596;2022-11-14T10:55:24;9.00;99.90
19522;DHT22;9905;52.126;5.596;2022-11-14T10:57:51;9.10;99.90
19522;DHT22;9905;52.126;5.596;2022-11-14T11:00:19;9.10;99.90
19522;DHT22;9905;52.126;5.596;2022-11-14T11:02:50;9.10;99.90
19522;DHT22;9905;52.126;5.596;2022-11-14T11:05:20;9.20;99.90
19522;DHT22;9905;52.126;5.596;2022-11-14T11:07:48;9.20;99.90
19522;DHT22;9905;52.126;5.596;2022-11-14T11:10:35;9.30;99.90
19522;DHT22;9905;52.126;5.596;2022-11-14T11:13:33;9.30;99.90
19522;DHT22;9905;52.126;5.596;2022-11-14T11:16:02;9.30;99.90
19522;DHT22;9905;52.126;5.596;2022-11-14T11:18:31;9.40;99.90
19522;DHT22;9905;52.126;5.596;2022-11-14T11:21:07;9.50;99.90
19522;DHT22;9905;52.126;5.596;2022-11-14T11:23:35;9.50;99.90
19522;DHT22;9905;52.126;5.596;2022-11-14T11:26:04;9.60;99.90
19522;DHT22;9905;52.126;5.596;2022-11-14T11:28:33;9.60;99.90
19522;DHT22;9905;52.126;5.596;2022-11-14T11:31:01;9.60;99.90
19522;DHT22;9905;52.126;5.596;2022-11-14T11:33:30;9.60;99.90
19522;DHT22;9905;52.126;5.596;2022-11-14T11:36:00;9.70;99.90
19522;DHT22;9905;52.126;5.596;2022-11-14T11:38:29;9.70;99.90
19522;DHT22;9905;52.126;5.596;2022-11-14T11:41:04;9.80;99.90
19522;DHT22;9905;52.126;5.596;2022-11-14T11:43:37;9.70;99.90
19522;DHT22;9905;52.126;5.596;2022-11-14T11:46:12;9.80;99.90
19522;DHT22;9905;52.126;5.596;2022-11-14T11:48:41;9.80;99.90
19522;DHT22;9905;52.126;5.596;2022-11-14T11:51:14;9.90;99.90
19522;DHT22;9905;52.126;5.596;2022-11-14T11:53:45;9.90;99.90
19522;DHT22;9905;52.126;5.596;2022-11-14T11:56:18;9.90;99.90
19522;DHT22;9905;52.126;5.596;2022-11-14T11:58:49;10.00;99.90
19522;DHT22;9905;52.126;5.596;2022-11-14T12:01:16;10.00;99.90
19522;DHT22;9905;52.126;5.596;2022-11-14T12:03:49;9.90;99.90
19522;DHT22;9905;52.126;5.596;2022-11-14T12:06:18;9.90;99.90
19522;DHT22;9905;52.126;5.596;2022-11-14T12:09:03;9.90;99.90
19522;DHT22;9905;52.126;5.596;2022-11-14T12:11:35;9.80;99.90
19522;DHT22;9905;52.126;5.596;2022-11-14T12:14:23;9.80;99.90
19522;DHT22;9905;52.126;5.596;2022-11-14T12:17:15;9.80;99.90
19522;DHT22;9905;52.126;5.596;2022-11-14T12:20:07;9.80;99.90
19522;DHT22;9905;52.126;5.596;2022-11-14T12:22:56;9.70;99.90
19522;DHT22;9905;52.126;5.596;2022-11-14T12:25:38;9.50;99.90
19522;DHT22;9905;52.126;5.596;2022-11-14T12:28:20;9.50;99.90
19522;DHT22;9905;52.126;5.596;2022-11-14T12:30:56;9.50;99.90
19522;DHT22;9905;52.126;5.596;2022-11-14T12:33:26;9.50;99.90
19522;DHT22;9905;52.126;5.596;2022-11-14T12:35:56;9.40;99.90
19522;DHT22;9905;52.126;5.596;2022-11-14T12:38:26;9.30;99.90
19522;DHT22;9905;52.126;5.596;2022-11-14T12:40:56;9.30;99.90
19522;DHT22;9905;52.126;5.596;2022-11-14T12:43:30;9.30;99.90
19522;DHT22;9905;52.126;5.596;2022-11-14T12:46:00;9.20;99.90
19522;DHT22;9905;52.126;5.596;2022-11-14T12:48:32;9.10;99.90
19522;DHT22;9905;52.126;5.596;2022-11-14T12:51:02;9.00;99.90
19522;DHT22;9905;52.126;5.596;2022-11-14T12:53:40;8.90;99.90
19522;DHT22;9905;52.126;5.596;2022-11-14T12:56:20;8.80;99.90
19522;DHT22;9905;52.126;5.596;2022-11-14T12:59:04;8.80;99.90
19522;DHT22;9905;52.126;5.596;2022-11-14T13:01:46;8.70;99.90
19522;DHT22;9905;52.126;5.596;2022-11-14T13:04:23;8.70;99.90
19522;DHT22;9905;52.126;5.596;2022-11-14T13:07:02;8.60;99.90
19522;DHT22;9905;52.126;5.596;2022-11-14T13:10:02;8.60;99.90
19522;DHT22;9905;52.126;5.596;2022-11-14T13:12:32;8.60;99.90
19522;DHT22;9905;52.126;5.596;2022-11-14T13:15:28;8.60;99.90
19522;DHT22;9905;52.126;5.596;2022-11-14T13:18:18;8.60;99.90
19522;DHT22;9905;52.126;5.596;2022-11-14T13:21:05;8.70;99.90
19522;DHT22;9905;52.126;5.596;2022-11-14T13:24:05;8.70;99.90
19522;DHT22;9905;52.126;5.596;2022-11-14T13:26:42;8.70;99.90
19522;DHT22;9905;52.126;5.596;2022-11-14T13:32:55;8.70;99.90
19522;DHT22;9905;52.126;5.596;2022-11-14T13:35:46;8.60;99.90
19522;DHT22;9905;52.126;5.596;2022-11-14T13:41:26;8.60;99.90
19522;DHT22;9905;52.126;5.596;2022-11-14T13:44:04;8.60;99.90
19522;DHT22;9905;52.126;5.596;2022-11-14T13:46:47;8.60;99.90
19522;DHT22;9905;52.126;5.596;2022-11-14T13:49:31;8.60;99.90
19522;DHT22;9905;52.126;5.596;2022-11-14T13:52:02;8.50;99.90
19522;DHT22;9905;52.126;5.596;2022-11-14T13:54:29;8.50;99.90
19522;DHT22;9905;52.126;5.596;2022-11-14T13:57:04;8.50;99.90
19522;DHT22;9905;52.126;5.596;2022-11-14T13:59:49;8.50;99.90
19522;DHT22;9905;52.126;5.596;2022-11-14T14:02:47;8.50;99.90
19522;DHT22;9905;52.126;5.596;2022-11-14T14:05:29;8.50;99.90
19522;DHT22;9905;52.126;5.596;2022-11-14T14:08:07;8.50;99.90
19522;DHT22;9905;52.126;5.596;2022-11-14T14:10:41;8.50;99.90
19522;DHT22;9905;52.126;5.596;2022-11-14T14:13:21;8.50;99.90
19522;DHT22;9905;52.126;5.596;2022-11-14T14:15:57;8.50;99.90
19522;DHT22;9905;52.126;5.596;2022-11-14T14:18:42;8.50;99.90
19522;DHT22;9905;52.126;5.596;2022-11-14T14:21:18;8.40;99.90
19522;DHT22;9905;52.126;5.596;2022-11-14T14:23:53;8.40;99.90
19522;DHT22;9905;52.126;5.596;2022-11-14T14:26:28;8.40;99.90
19522;DHT22;9905;52.126;5.596;2022-11-14T14:29:03;8.40;99.90
19522;DHT22;9905;52.126;5.596;2022-11-14T14:31:35;8.40;99.90
19522;DHT22;9905;52.126;5.596;2022-11-14T14:34:17;8.30;99.90
19522;DHT22;9905;52.126;5.596;2022-11-14T14:36:50;8.30;99.90
19522;DHT22;9905;52.126;5.596;2022-11-14T14:39:19;8.30;99.90
19522;DHT22;9905;52.126;5.596;2022-11-14T14:41:47;8.30;99.90
19522;DHT22;9905;52.126;5.596;2022-11-14T14:44:20;8.30;99.90
19522;DHT22;9905;52.126;5.596;2022-11-14T14:46:47;8.30;99.90
19522;DHT22;9905;52.126;5.596;2022-11-14T14:49:19;8.30;99.90
19522;DHT22;9905;52.126;5.596;2022-11-14T14:51:46;8.30;99.90
19522;DHT22;9905;52.126;5.596;2022-11-14T14:54:20;8.30;99.90
19522;DHT22;9905;52.126;5.596;2022-11-14T14:56:55;8.20;99.90
19522;DHT22;9905;52.126;5.596;2022-11-14T14:59:25;8.20;99.90
19522;DHT22;9905;52.126;5.596;2022-11-14T15:01:52;8.30;99.90
19522;DHT22;9905;52.126;5.596;2022-11-14T15:04:21;8.30;99.90
19522;DHT22;9905;52.126;5.596;2022-11-14T15:06:50;8.30;99.90
19522;DHT22;9905;52.126;5.596;2022-11-14T15:09:20;8.30;99.90
19522;DHT22;9905;52.126;5.596;2022-11-14T15:11:49;8.30;99.90
19522;DHT22;9905;52.126;5.596;2022-11-14T15:14:18;8.30;99.90
19522;DHT22;9905;52.126;5.596;2022-11-14T15:16:46;8.20;99.90
19522;DHT22;9905;52.126;5.596;2022-11-14T15:19:17;8.20;99.90
19522;DHT22;9905;52.126;5.596;2022-11-14T15:21:44;8.20;99.90
19522;DHT22;9905;52.126;5.596;2022-11-14T15:24:14;8.30;99.90
19522;DHT22;9905;52.126;5.596;2022-11-14T15:26:44;8.20;99.90
19522;DHT22;9905;52.126;5.596;2022-11-14T15:29:17;8.20;99.90
19522;DHT22;9905;52.126;5.596;2022-11-14T15:31:49;8.20;99.90
19522;DHT22;9905;52.126;5.596;2022-11-14T15:34:24;8.20;99.90
19522;DHT22;9905;52.126;5.596;2022-11-14T15:37:20;8.20;99.90
19522;DHT22;9905;52.126;5.596;2022-11-14T15:39:47;8.20;99.90
19522;DHT22;9905;52.126;5.596;2022-11-14T15:42:17;8.20;99.90
19522;DHT22;9905;52.126;5.596;2022-11-14T15:44:46;8.20;99.90
19522;DHT22;9905;52.126;5.596;2022-11-14T15:47:19;8.20;99.90
19522;DHT22;9905;52.126;5.596;2022-11-14T15:49:58;8.20;99.90
19522;DHT22;9905;52.126;5.596;2022-11-14T15:52:29;8.20;99.90
19522;DHT22;9905;52.126;5.596;2022-11-14T15:54:57;8.10;99.90
19522;DHT22;9905;52.126;5.596;2022-11-14T15:57:25;8.20;99.90
19522;DHT22;9905;52.126;5.596;2022-11-14T15:59:52;8.20;99.90
19522;DHT22;9905;52.126;5.596;2022-11-14T16:02:20;8.20;99.90
19522;DHT22;9905;52.126;5.596;2022-11-14T16:04:49;8.20;99.90
19522;DHT22;9905;52.126;5.596;2022-11-14T16:07:17;8.20;99.90
19522;DHT22;9905;52.126;5.596;2022-11-14T16:09:44;8.20;99.90
19522;DHT22;9905;52.126;5.596;2022-11-14T16:12:11;8.10;99.90
19522;DHT22;9905;52.126;5.596;2022-11-14T16:14:39;8.10;99.90
19522;DHT22;9905;52.126;5.596;2022-11-14T16:17:11;8.10;99.90
19522;DHT22;9905;52.126;5.596;2022-11-14T16:19:38;8.00;99.90
19522;DHT22;9905;52.126;5.596;2022-11-14T16:22:05;7.90;99.90
19522;DHT22;9905;52.126;5.596;2022-11-14T16:24:31;7.90;99.90
19522;DHT22;9905;52.126;5.596;2022-11-14T16:26:58;7.90;99.90
19522;DHT22;9905;52.126;5.596;2022-11-14T16:29:25;7.90;99.90
19522;DHT22;9905;52.126;5.596;2022-11-14T16:31:53;7.80;99.90
19522;DHT22;9905;52.126;5.596;2022-11-14T16:34:22;7.80;99.90